createdAt,value
2022-12-25T00:00:20.867Z,2.73
2022-12-25T00:01:25.679Z,2.66
2022-12-25T00:02:22.391Z,2.81
2022-12-25T00:03:19.059Z,2.78
2022-12-25T00:04:15.771Z,2.69
2022-12-25T00:05:12.428Z,2.59
2022-12-25T00:06:09.759Z,2.56
2022-12-25T00:07:06.493Z,2.56
2022-12-25T00:08:03.163Z,2.60
2022-12-25T00:08:59.734Z,2.36
2022-12-25T00:09:56.355Z,2.47
2022-12-25T00:11:04.415Z,2.40
2022-12-25T00:12:00.990Z,2.37
2022-12-25T00:12:57.593Z,2.31
2022-12-25T00:13:54.213Z,2.16
2022-12-25T00:14:50.996Z,2.32
2022-12-25T00:15:47.689Z,2.57
2022-12-25T00:16:44.583Z,2.37
2022-12-25T00:17:41.259Z,2.29
2022-12-25T00:18:37.840Z,2.44
2022-12-25T00:19:34.526Z,2.45
2022-12-25T00:20:31.094Z,2.45
2022-12-25T00:21:28.371Z,2.67
2022-12-25T00:22:25.054Z,2.65
2022-12-25T00:23:21.737Z,2.15
2022-12-25T00:24:18.397Z,2.64
2022-12-25T00:25:15.117Z,2.53
2022-12-25T00:26:14.627Z,2.20
2022-12-25T00:27:11.187Z,2.29
2022-12-25T00:28:07.757Z,2.32
2022-12-25T00:29:04.328Z,2.18
2022-12-25T00:30:01.769Z,1.96
2022-12-25T00:30:58.474Z,2.41
2022-12-25T00:31:55.071Z,2.33
2022-12-25T00:32:51.660Z,2.40
2022-12-25T00:33:50.054Z,2.21
2022-12-25T00:34:47.969Z,2.24
2022-12-25T00:35:44.633Z,2.25
2022-12-25T00:36:42.120Z,2.60
2022-12-25T00:37:38.866Z,2.81
2022-12-25T00:38:37.475Z,2.74
2022-12-25T00:39:34.341Z,2.28
2022-12-25T00:40:31.045Z,2.43
2022-12-25T00:41:46.168Z,2.54
2022-12-25T00:42:42.733Z,2.68
2022-12-25T00:43:41.828Z,2.70
2022-12-25T00:44:38.395Z,2.69
2022-12-25T00:45:35.082Z,2.61
2022-12-25T00:46:31.846Z,2.81
2022-12-25T00:47:29.727Z,2.65
2022-12-25T00:48:27.660Z,2.91
2022-12-25T00:49:24.525Z,3.10
2022-12-25T00:50:21.178Z,3.39
2022-12-25T00:51:17.854Z,3.32
2022-12-25T00:52:14.524Z,3.23
2022-12-25T00:53:11.177Z,2.92
2022-12-25T00:54:08.129Z,3.05
2022-12-25T00:55:05.651Z,3.03
2022-12-25T00:56:04.758Z,2.78
2022-12-25T00:57:01.652Z,2.79
2022-12-25T00:57:59.443Z,2.53
2022-12-25T00:58:57.388Z,2.48
2022-12-25T00:59:54.031Z,2.59
2022-12-25T01:00:51.451Z,2.30
2022-12-25T01:01:48.220Z,2.66
2022-12-25T01:02:45.101Z,2.48
2022-12-25T01:03:41.808Z,2.64
2022-12-25T01:04:38.360Z,2.62
2022-12-25T01:05:34.990Z,2.56
2022-12-25T01:06:32.150Z,2.60
2022-12-25T01:07:28.789Z,2.91
2022-12-25T01:08:26.127Z,2.69
2022-12-25T01:09:41.266Z,2.56
2022-12-25T01:10:37.910Z,2.60
2022-12-25T01:11:34.550Z,2.44
2022-12-25T01:12:36.400Z,2.52
2022-12-25T01:13:35.407Z,2.90
2022-12-25T01:14:31.935Z,1.71
2022-12-25T01:15:28.580Z,2.75
2022-12-25T01:16:25.460Z,2.63
2022-12-25T01:17:22.189Z,2.48
2022-12-25T01:18:20.460Z,2.46
2022-12-25T01:19:17.019Z,2.63
2022-12-25T01:20:15.680Z,2.53
2022-12-25T01:21:17.991Z,2.49
2022-12-25T01:22:16.360Z,2.36
2022-12-25T01:23:13.317Z,2.25
2022-12-25T01:24:09.946Z,2.21
2022-12-25T01:25:07.235Z,2.27
2022-12-25T01:26:08.535Z,2.35
2022-12-25T01:27:05.118Z,2.23
2022-12-25T01:28:01.732Z,1.82
2022-12-25T01:28:58.328Z,1.81
2022-12-25T01:29:54.937Z,1.93
2022-12-25T01:30:51.555Z,1.77
2022-12-25T01:31:48.254Z,1.73
2022-12-25T01:32:44.908Z,1.92
2022-12-25T01:33:43.157Z,1.83
2022-12-25T01:34:39.838Z,2.29
2022-12-25T01:35:39.620Z,2.38
2022-12-25T01:36:36.385Z,2.35
2022-12-25T01:37:32.997Z,2.38
2022-12-25T01:38:29.616Z,2.55
2022-12-25T01:39:26.461Z,2.62
2022-12-25T01:40:23.078Z,2.03
2022-12-25T01:41:22.667Z,2.45
2022-12-25T01:42:21.311Z,2.49
2022-12-25T01:43:24.442Z,2.27
2022-12-25T01:44:36.047Z,2.74
2022-12-25T01:45:43.605Z,2.35
2022-12-25T01:46:40.544Z,2.13
2022-12-25T01:47:37.253Z,2.13
2022-12-25T01:48:38.033Z,1.76
2022-12-25T01:49:36.424Z,1.94
2022-12-25T01:50:34.368Z,2.07
2022-12-25T01:52:04.363Z,2.29
2022-12-25T01:53:01.031Z,2.01
2022-12-25T01:54:02.033Z,1.97
2022-12-25T01:55:05.826Z,1.75
2022-12-25T01:56:08.054Z,1.60
2022-12-25T01:57:09.455Z,1.81
2022-12-25T01:58:06.327Z,1.93
2022-12-25T01:59:04.514Z,1.97
2022-12-25T02:00:01.852Z,1.90
2022-12-25T02:00:58.531Z,2.21
2022-12-25T02:01:56.302Z,2.27
2022-12-25T02:02:53.172Z,2.16
2022-12-25T02:03:49.952Z,1.74
2022-12-25T02:05:01.364Z,2.04
2022-12-25T02:05:59.408Z,2.26
2022-12-25T02:06:56.197Z,2.22
2022-12-25T02:07:53.697Z,2.24
2022-12-25T02:08:50.431Z,2.08
2022-12-25T02:09:48.119Z,2.20
2022-12-25T02:10:45.054Z,2.16
2022-12-25T02:11:56.717Z,2.12
2022-12-25T02:12:53.414Z,1.81
2022-12-25T02:13:50.140Z,2.17
2022-12-25T02:14:49.327Z,2.33
2022-12-25T02:15:53.607Z,2.23
2022-12-25T02:17:15.918Z,2.00
2022-12-25T02:18:38.605Z,2.18
2022-12-25T02:20:08.617Z,2.18
2022-12-25T02:21:42.914Z,2.53
2022-12-25T02:22:51.685Z,2.54
2022-12-25T02:24:22.848Z,2.21
2022-12-25T02:25:38.177Z,2.48
2022-12-25T02:27:04.491Z,2.27
2022-12-25T02:28:19.029Z,2.08
2022-12-25T02:29:25.379Z,2.18
2022-12-25T02:30:22.317Z,2.29
2022-12-25T02:31:43.277Z,2.03
2022-12-25T02:32:51.876Z,2.19
2022-12-25T02:34:15.789Z,1.88
2022-12-25T02:35:23.774Z,1.68
2022-12-25T02:36:25.477Z,1.57
2022-12-25T02:37:36.055Z,1.37
2022-12-25T02:38:38.849Z,1.64
2022-12-25T02:40:15.204Z,1.62
2022-12-25T02:41:16.280Z,1.64
2022-12-25T02:42:56.052Z,1.53
2022-12-25T02:44:11.392Z,1.61
2022-12-25T02:45:26.993Z,1.47
2022-12-25T02:46:43.528Z,1.49
2022-12-25T02:47:59.022Z,1.74
2022-12-25T02:49:18.014Z,1.56
2022-12-25T02:50:34.069Z,1.84
2022-12-25T02:51:53.058Z,1.89
2022-12-25T02:53:10.927Z,2.11
2022-12-25T02:54:31.133Z,1.92
2022-12-25T02:56:09.185Z,2.02
2022-12-25T02:57:27.803Z,2.01
2022-12-25T02:58:45.359Z,1.74
2022-12-25T03:00:07.470Z,1.76
2022-12-25T03:01:34.312Z,1.91
2022-12-25T03:02:51.788Z,1.91
2022-12-25T03:04:10.312Z,1.58
2022-12-25T03:05:28.189Z,2.17
2022-12-25T03:06:44.231Z,1.87
2022-12-25T03:07:44.021Z,1.84
2022-12-25T03:08:45.119Z,1.89
2022-12-25T03:10:06.892Z,2.13
2022-12-25T03:11:25.872Z,2.00
2022-12-25T03:12:43.985Z,2.20
2022-12-25T03:13:43.457Z,2.38
2022-12-25T03:14:58.738Z,2.26
2022-12-25T03:16:14.249Z,2.18
2022-12-25T03:17:10.977Z,1.81
2022-12-25T03:18:13.459Z,1.92
2022-12-25T03:19:28.535Z,1.66
2022-12-25T03:20:44.688Z,1.41
2022-12-25T03:21:59.770Z,1.58
2022-12-25T03:23:16.237Z,1.70
2022-12-25T03:24:31.359Z,1.99
2022-12-25T03:25:47.597Z,2.23
2022-12-25T03:26:56.625Z,2.25
2022-12-25T03:27:55.835Z,2.17
2022-12-25T03:28:52.447Z,2.28
2022-12-25T03:30:07.853Z,1.87
2022-12-25T03:31:17.226Z,2.22
2022-12-25T03:32:39.863Z,2.00
2022-12-25T03:34:30.627Z,1.91
2022-12-25T03:35:44.420Z,1.83
2022-12-25T03:37:24.373Z,1.65
2022-12-25T03:38:50.070Z,1.76
2022-12-25T03:40:25.617Z,1.62
2022-12-25T03:41:54.066Z,1.61
2022-12-25T03:43:18.479Z,1.28
2022-12-25T03:44:55.345Z,1.32
2022-12-25T03:46:16.711Z,1.38
2022-12-25T03:47:31.908Z,1.37
2022-12-25T03:48:50.823Z,1.43
2022-12-25T03:50:22.225Z,1.10
2022-12-25T03:51:43.366Z,1.12
2022-12-25T03:52:58.797Z,1.69
2022-12-25T03:54:19.852Z,1.48
2022-12-25T03:55:38.003Z,1.49
2022-12-25T03:56:56.037Z,1.92
2022-12-25T03:58:11.700Z,1.50
2022-12-25T03:59:26.617Z,1.18
2022-12-25T04:00:55.800Z,1.43
2022-12-25T04:02:11.281Z,1.66
2022-12-25T04:03:26.416Z,1.59
2022-12-25T04:04:41.883Z,1.72
2022-12-25T04:05:57.090Z,1.61
2022-12-25T04:07:11.946Z,1.20
2022-12-25T04:08:26.810Z,1.47
2022-12-25T04:09:41.875Z,1.41
2022-12-25T04:10:57.413Z,1.40
2022-12-25T04:12:12.211Z,2.22
2022-12-25T04:13:27.161Z,2.35
2022-12-25T04:14:42.430Z,2.21
2022-12-25T04:15:57.935Z,2.04
2022-12-25T04:17:13.271Z,2.06
2022-12-25T04:18:28.710Z,1.95
2022-12-25T04:19:43.667Z,1.52
2022-12-25T04:20:58.561Z,1.53
2022-12-25T04:22:13.685Z,1.95
2022-12-25T04:23:28.887Z,2.10
2022-12-25T04:24:43.939Z,1.90
2022-12-25T04:25:59.336Z,1.77
2022-12-25T04:27:15.068Z,1.69
2022-12-25T04:28:29.954Z,1.59
2022-12-25T04:29:44.857Z,1.51
2022-12-25T04:30:59.996Z,1.45
2022-12-25T04:32:14.896Z,1.56
2022-12-25T04:33:30.017Z,1.97
2022-12-25T04:34:44.973Z,1.92
2022-12-25T04:36:04.156Z,1.61
2022-12-25T04:37:00.791Z,1.32
2022-12-25T04:37:57.381Z,1.48
2022-12-25T04:38:53.991Z,1.41
2022-12-25T04:39:50.553Z,1.53
2022-12-25T04:40:47.414Z,1.57
2022-12-25T04:41:44.108Z,1.50
2022-12-25T04:42:41.053Z,1.73
2022-12-25T04:43:37.785Z,1.84
2022-12-25T04:44:34.375Z,1.79
2022-12-25T04:45:31.014Z,1.94
2022-12-25T04:46:27.700Z,1.92
2022-12-25T04:47:24.383Z,1.69
2022-12-25T04:48:21.285Z,1.75
2022-12-25T04:49:17.880Z,1.85
2022-12-25T04:50:14.451Z,1.73
2022-12-25T04:51:12.408Z,1.92
2022-12-25T04:52:09.138Z,2.03
2022-12-25T04:53:05.725Z,1.91
2022-12-25T04:54:02.266Z,1.88
2022-12-25T04:54:58.829Z,1.87
2022-12-25T04:56:01.907Z,1.71
2022-12-25T04:56:58.554Z,1.75
2022-12-25T04:57:55.152Z,1.69
2022-12-25T04:58:51.732Z,1.46
2022-12-25T04:59:48.348Z,1.95
2022-12-25T05:00:45.053Z,1.93
2022-12-25T05:01:42.001Z,1.48
2022-12-25T05:02:38.753Z,1.62
2022-12-25T05:03:35.978Z,1.48
2022-12-25T05:04:32.641Z,1.90
2022-12-25T05:05:29.278Z,1.81
2022-12-25T05:06:25.880Z,1.89
2022-12-25T05:07:22.544Z,2.29
2022-12-25T05:08:19.145Z,2.11
2022-12-25T05:09:15.780Z,2.12
2022-12-25T05:10:12.356Z,2.17
2022-12-25T05:11:11.838Z,2.24
2022-12-25T05:12:09.397Z,1.90
2022-12-25T05:13:05.957Z,2.24
2022-12-25T05:14:02.580Z,2.25
2022-12-25T05:14:59.376Z,2.05
2022-12-25T05:15:56.135Z,1.96
2022-12-25T05:16:52.761Z,2.29
2022-12-25T05:17:50.840Z,1.90
2022-12-25T05:18:51.121Z,2.28
2022-12-25T05:19:47.748Z,2.02
2022-12-25T05:20:52.733Z,1.92
2022-12-25T05:21:49.337Z,1.91
2022-12-25T05:22:45.934Z,1.95
2022-12-25T05:23:48.816Z,2.05
2022-12-25T05:24:45.552Z,2.11
2022-12-25T05:25:42.189Z,1.93
2022-12-25T05:26:38.764Z,1.85
2022-12-25T05:27:36.137Z,2.15
2022-12-25T05:28:35.005Z,2.40
2022-12-25T05:29:31.629Z,2.43
2022-12-25T05:30:28.171Z,2.26
2022-12-25T05:31:24.947Z,2.11
2022-12-25T05:32:21.519Z,2.30
2022-12-25T05:33:18.234Z,1.92
2022-12-25T05:34:14.807Z,2.13
2022-12-25T05:35:11.614Z,2.15
2022-12-25T05:36:10.281Z,2.15
2022-12-25T05:37:07.067Z,2.18
2022-12-25T05:38:06.535Z,2.24
2022-12-25T05:39:03.428Z,2.37
2022-12-25T05:39:59.966Z,2.23
2022-12-25T05:40:56.551Z,2.11
2022-12-25T05:41:53.187Z,2.41
2022-12-25T05:42:49.877Z,2.26
2022-12-25T05:43:46.620Z,2.24
2022-12-25T05:44:43.464Z,2.23
2022-12-25T05:45:40.057Z,2.04
2022-12-25T05:46:36.663Z,1.41
2022-12-25T05:47:33.279Z,2.02
2022-12-25T05:48:29.862Z,2.21
2022-12-25T05:49:26.436Z,2.02
2022-12-25T05:50:23.100Z,1.70
2022-12-25T05:51:19.842Z,1.74
2022-12-25T05:52:16.459Z,1.54
2022-12-25T05:53:15.063Z,1.66
2022-12-25T05:54:11.745Z,1.79
2022-12-25T05:55:08.744Z,1.50
2022-12-25T05:56:07.505Z,1.77
2022-12-25T05:57:04.185Z,1.97
2022-12-25T05:58:04.732Z,2.08
2022-12-25T05:59:01.328Z,1.83
2022-12-25T05:59:58.453Z,1.48
2022-12-25T06:00:55.137Z,1.72
2022-12-25T06:01:51.865Z,1.75
2022-12-25T06:02:48.838Z,1.37
2022-12-25T06:03:45.676Z,1.69
2022-12-25T06:04:42.489Z,1.71
2022-12-25T06:05:39.853Z,1.43
2022-12-25T06:06:36.499Z,1.46
2022-12-25T06:07:33.083Z,1.55
2022-12-25T06:08:29.646Z,1.55
2022-12-25T06:09:26.368Z,1.28
2022-12-25T06:10:23.397Z,1.61
2022-12-25T06:11:20.042Z,1.86
2022-12-25T06:12:16.648Z,2.12
2022-12-25T06:13:13.670Z,2.12
2022-12-25T06:14:14.827Z,1.89
2022-12-25T06:15:11.539Z,2.18
2022-12-25T06:16:10.412Z,2.18
2022-12-25T06:17:07.090Z,2.30
2022-12-25T06:18:03.886Z,2.16
2022-12-25T06:19:00.532Z,2.15
2022-12-25T06:19:57.270Z,2.29
2022-12-25T06:20:53.945Z,2.30
2022-12-25T06:21:54.464Z,2.30
2022-12-25T06:22:51.148Z,1.59
2022-12-25T06:23:48.104Z,2.27
2022-12-25T06:24:44.773Z,2.37
2022-12-25T06:25:41.397Z,2.49
2022-12-25T06:26:38.093Z,2.71
2022-12-25T06:27:34.746Z,2.35
2022-12-25T06:28:31.383Z,2.54
2022-12-25T06:29:28.016Z,2.68
2022-12-25T06:30:24.650Z,2.81
2022-12-25T06:31:23.385Z,3.00
2022-12-25T06:32:20.134Z,3.02
2022-12-25T06:33:16.739Z,2.82
2022-12-25T06:34:16.513Z,3.03
2022-12-25T06:35:13.123Z,3.01
2022-12-25T06:36:12.265Z,3.06
2022-12-25T06:37:09.116Z,3.00
2022-12-25T06:38:05.705Z,2.86
2022-12-25T06:39:02.485Z,3.10
2022-12-25T06:39:59.097Z,3.16
2022-12-25T06:40:55.759Z,3.18
2022-12-25T06:41:52.348Z,3.20
2022-12-25T06:42:48.922Z,3.05
2022-12-25T06:43:53.728Z,2.92
2022-12-25T06:44:51.079Z,3.17
2022-12-25T06:45:47.906Z,3.14
2022-12-25T06:46:44.469Z,3.21
2022-12-25T06:47:41.033Z,3.18
2022-12-25T06:48:39.199Z,3.15
2022-12-25T06:49:35.800Z,3.17
2022-12-25T06:50:32.494Z,3.11
2022-12-25T06:51:31.711Z,3.32
2022-12-25T06:52:28.337Z,3.39
2022-12-25T06:53:25.023Z,3.34
2022-12-25T06:54:21.594Z,3.43
2022-12-25T06:55:18.223Z,3.41
2022-12-25T06:56:18.148Z,3.19
2022-12-25T06:57:14.729Z,3.34
2022-12-25T06:58:11.281Z,3.40
2022-12-25T06:59:10.302Z,3.26
2022-12-25T07:00:07.666Z,3.57
2022-12-25T07:01:15.614Z,3.67
2022-12-25T07:02:18.996Z,3.81
2022-12-25T07:03:21.026Z,3.76
2022-12-25T07:04:38.926Z,3.86
2022-12-25T07:05:35.615Z,3.88
2022-12-25T07:06:32.387Z,3.74
2022-12-25T07:07:29.028Z,3.95
2022-12-25T07:08:25.681Z,3.87
2022-12-25T07:09:22.275Z,3.90
2022-12-25T07:10:18.810Z,3.99
2022-12-25T07:11:15.730Z,3.97
2022-12-25T07:12:21.662Z,3.90
2022-12-25T07:13:18.283Z,4.00
2022-12-25T07:14:24.084Z,3.96
2022-12-25T07:15:21.207Z,4.04
2022-12-25T07:16:17.988Z,4.05
2022-12-25T07:17:16.455Z,4.15
2022-12-25T07:18:13.055Z,4.47
2022-12-25T07:19:10.504Z,4.43
2022-12-25T07:20:07.816Z,4.34
2022-12-25T07:21:14.143Z,4.41
2022-12-25T07:22:10.782Z,4.44
2022-12-25T07:23:07.358Z,4.48
2022-12-25T07:24:04.182Z,4.12
2022-12-25T07:25:00.773Z,4.50
2022-12-25T07:25:59.220Z,4.59
2022-12-25T07:26:55.857Z,4.56
2022-12-25T07:27:52.547Z,4.67
2022-12-25T07:28:49.233Z,4.77
2022-12-25T07:29:45.804Z,4.90
2022-12-25T07:30:42.386Z,4.94
2022-12-25T07:31:38.995Z,4.77
2022-12-25T07:32:35.726Z,4.91
2022-12-25T07:33:32.507Z,4.71
2022-12-25T07:34:29.208Z,4.78
2022-12-25T07:35:25.884Z,4.92
2022-12-25T07:36:22.966Z,4.80
2022-12-25T07:37:19.577Z,4.86
2022-12-25T07:38:16.185Z,4.90
2022-12-25T07:39:13.178Z,4.86
2022-12-25T07:40:10.252Z,4.98
2022-12-25T07:41:12.999Z,4.86
2022-12-25T07:42:09.781Z,5.03
2022-12-25T07:43:06.477Z,5.07
2022-12-25T07:44:03.252Z,5.23
2022-12-25T07:44:59.826Z,5.21
2022-12-25T07:46:00.544Z,5.21
2022-12-25T07:46:57.234Z,5.20
2022-12-25T07:47:55.230Z,5.09
2022-12-25T07:48:52.115Z,5.04
2022-12-25T07:49:48.682Z,4.92
2022-12-25T07:50:45.366Z,5.22
2022-12-25T07:51:42.017Z,4.76
2022-12-25T07:52:43.435Z,5.03
2022-12-25T07:53:41.048Z,5.16
2022-12-25T07:54:37.670Z,5.13
2022-12-25T07:55:34.233Z,5.24
2022-12-25T07:56:30.879Z,5.47
2022-12-25T07:57:27.768Z,5.23
2022-12-25T07:58:24.619Z,5.17
2022-12-25T07:59:21.435Z,5.26
2022-12-25T08:00:18.686Z,5.63
2022-12-25T08:01:18.322Z,5.34
2022-12-25T08:02:15.291Z,5.55
2022-12-25T08:03:12.441Z,5.63
2022-12-25T08:04:10.389Z,5.48
2022-12-25T08:05:07.776Z,5.42
2022-12-25T08:06:07.670Z,5.78
2022-12-25T08:07:04.219Z,5.92
2022-12-25T08:08:00.797Z,5.78
2022-12-25T08:09:02.752Z,5.60
2022-12-25T08:09:59.336Z,5.40
2022-12-25T08:10:56.060Z,5.60
2022-12-25T08:11:52.621Z,5.63
2022-12-25T08:12:49.324Z,5.63
2022-12-25T08:13:45.910Z,5.76
2022-12-25T08:14:42.478Z,5.97
2022-12-25T08:15:39.106Z,6.11
2022-12-25T08:16:36.083Z,6.18
2022-12-25T08:17:35.183Z,6.00
2022-12-25T08:18:32.215Z,6.11
2022-12-25T08:19:29.237Z,5.93
2022-12-25T08:20:25.828Z,6.03
2022-12-25T08:21:22.480Z,6.23
2022-12-25T08:22:19.033Z,6.16
2022-12-25T08:23:15.622Z,6.23
2022-12-25T08:24:12.295Z,6.27
2022-12-25T08:25:09.437Z,6.41
2022-12-25T08:26:08.252Z,6.48
2022-12-25T08:27:04.878Z,6.20
2022-12-25T08:28:01.746Z,6.46
2022-12-25T08:28:58.985Z,6.71
2022-12-25T08:29:55.794Z,6.43
2022-12-25T08:30:52.469Z,6.20
2022-12-25T08:31:49.364Z,6.19
2022-12-25T08:32:46.094Z,5.96
2022-12-25T08:33:43.888Z,6.00
2022-12-25T08:34:40.678Z,6.38
2022-12-25T08:35:37.311Z,6.46
2022-12-25T08:36:34.068Z,6.50
2022-12-25T08:37:30.671Z,6.35
2022-12-25T08:38:28.217Z,6.19
2022-12-25T08:39:24.863Z,6.29
2022-12-25T08:40:21.612Z,6.49
2022-12-25T08:41:18.346Z,6.74
2022-12-25T08:42:15.413Z,6.73
2022-12-25T08:43:12.044Z,6.78
2022-12-25T08:44:08.878Z,6.98
2022-12-25T08:45:05.837Z,6.93
2022-12-25T08:46:03.478Z,6.63
2022-12-25T08:47:00.100Z,6.38
2022-12-25T08:47:57.556Z,6.59
2022-12-25T08:48:55.014Z,6.64
2022-12-25T08:49:51.720Z,6.65
2022-12-25T08:50:49.940Z,6.43
2022-12-25T08:51:46.618Z,6.86
2022-12-25T08:52:43.322Z,6.93
2022-12-25T08:53:40.757Z,6.59
2022-12-25T08:54:37.458Z,6.67
2022-12-25T08:55:34.106Z,6.75
2022-12-25T08:56:30.690Z,5.79
2022-12-25T08:57:27.369Z,6.83
2022-12-25T08:58:23.913Z,6.64
2022-12-25T08:59:20.669Z,6.87
2022-12-25T09:00:17.636Z,6.93
2022-12-25T09:01:14.900Z,7.03
2022-12-25T09:02:12.678Z,7.16
2022-12-25T09:03:09.433Z,6.96
2022-12-25T09:04:06.072Z,7.01
2022-12-25T09:05:02.762Z,7.02
2022-12-25T09:06:05.223Z,7.18
2022-12-25T09:07:02.712Z,7.15
2022-12-25T09:07:59.276Z,6.99
2022-12-25T09:08:56.042Z,7.11
2022-12-25T09:09:52.610Z,7.31
2022-12-25T09:10:49.675Z,7.30
2022-12-25T09:11:46.254Z,7.69
2022-12-25T09:12:43.101Z,7.74
2022-12-25T09:13:40.260Z,7.47
2022-12-25T09:14:37.010Z,7.06
2022-12-25T09:15:33.812Z,7.48
2022-12-25T09:16:30.565Z,7.62
2022-12-25T09:17:27.235Z,7.67
2022-12-25T09:18:23.860Z,7.59
2022-12-25T09:19:22.165Z,7.63
2022-12-25T09:20:18.802Z,7.77
2022-12-25T09:21:16.480Z,7.89
2022-12-25T09:22:13.153Z,7.84
2022-12-25T09:23:13.746Z,7.61
2022-12-25T09:24:11.296Z,7.77
2022-12-25T09:25:08.314Z,8.01
2022-12-25T09:26:06.730Z,7.85
2022-12-25T09:27:03.310Z,8.09
2022-12-25T09:27:59.916Z,8.16
2022-12-25T09:28:56.567Z,8.40
2022-12-25T09:29:53.240Z,8.23
2022-12-25T09:30:51.565Z,8.31
2022-12-25T09:31:48.461Z,8.51
2022-12-25T09:32:45.062Z,8.60
2022-12-25T09:33:41.739Z,8.27
2022-12-25T09:34:38.349Z,8.42
2022-12-25T09:35:35.132Z,7.99
2022-12-25T09:36:31.724Z,7.90
2022-12-25T09:37:28.902Z,8.16
2022-12-25T09:38:26.577Z,8.39
2022-12-25T09:39:23.401Z,8.27
2022-12-25T09:40:21.557Z,8.24
2022-12-25T09:41:22.049Z,8.17
2022-12-25T09:42:28.707Z,8.52
2022-12-25T09:43:28.544Z,8.59
2022-12-25T09:44:29.118Z,8.56
2022-12-25T09:45:28.612Z,8.48
2022-12-25T09:46:36.397Z,8.39
2022-12-25T09:47:38.358Z,8.76
2022-12-25T09:48:40.041Z,8.49
2022-12-25T09:49:36.616Z,8.71
2022-12-25T09:50:53.148Z,8.72
2022-12-25T09:51:56.569Z,8.81
2022-12-25T09:53:00.950Z,8.77
2022-12-25T09:54:09.803Z,8.63
2022-12-25T09:55:20.604Z,8.43
2022-12-25T09:56:25.570Z,8.51
2022-12-25T09:57:24.310Z,9.02
2022-12-25T09:58:20.985Z,9.09
2022-12-25T09:59:24.641Z,8.89
2022-12-25T10:00:24.399Z,9.11
2022-12-25T10:01:30.312Z,8.94
2022-12-25T10:02:39.314Z,9.01
2022-12-25T10:03:41.737Z,8.96
2022-12-25T10:04:47.238Z,9.14
2022-12-25T10:06:13.243Z,9.35
2022-12-25T10:07:36.737Z,9.19
2022-12-25T10:09:08.340Z,9.41
2022-12-25T10:10:35.856Z,9.64
2022-12-25T10:12:09.757Z,9.72
2022-12-25T10:13:15.555Z,9.71
2022-12-25T10:14:30.236Z,9.58
2022-12-25T10:15:39.162Z,9.53
2022-12-25T10:16:38.742Z,9.51
2022-12-25T10:17:44.425Z,9.40
2022-12-25T10:19:05.611Z,9.35
2022-12-25T10:20:08.489Z,9.62
2022-12-25T10:21:12.952Z,9.59
2022-12-25T10:22:19.937Z,9.71
2022-12-25T10:23:22.721Z,9.56
2022-12-25T10:24:38.844Z,9.66
2022-12-25T10:25:38.851Z,9.25
2022-12-25T10:26:35.637Z,9.61
2022-12-25T10:27:39.652Z,9.72
2022-12-25T10:28:43.151Z,9.62
2022-12-25T10:29:41.133Z,9.44
2022-12-25T10:30:38.828Z,9.51
2022-12-25T10:31:37.251Z,9.62
2022-12-25T10:32:34.055Z,9.65
2022-12-25T10:33:31.200Z,9.86
2022-12-25T10:34:28.964Z,9.99
2022-12-25T10:35:28.466Z,10.02
2022-12-25T10:36:27.731Z,10.29
2022-12-25T10:37:25.107Z,10.07
2022-12-25T10:38:21.741Z,9.89
2022-12-25T10:39:20.538Z,9.75
2022-12-25T10:40:23.314Z,9.72
2022-12-25T10:41:22.946Z,9.63
2022-12-25T10:42:35.967Z,9.72
2022-12-25T10:43:50.832Z,9.84
2022-12-25T10:45:06.170Z,10.13
2022-12-25T10:46:10.827Z,10.09
2022-12-25T10:47:07.535Z,10.03
2022-12-25T10:48:07.744Z,9.87
2022-12-25T10:49:04.822Z,9.86
2022-12-25T10:50:25.708Z,10.09
2022-12-25T10:51:36.267Z,9.82
2022-12-25T10:52:32.859Z,9.88
2022-12-25T10:53:37.275Z,9.83
2022-12-25T10:54:36.077Z,9.95
2022-12-25T10:55:33.686Z,10.16
2022-12-25T10:56:30.677Z,10.12
2022-12-25T10:57:29.255Z,9.97
2022-12-25T10:58:26.186Z,9.96
2022-12-25T10:59:23.884Z,9.99
2022-12-25T11:00:23.599Z,9.74
2022-12-25T11:01:20.464Z,9.58
2022-12-25T11:02:17.341Z,9.95
2022-12-25T11:03:23.603Z,10.11
2022-12-25T11:04:22.569Z,10.07
2022-12-25T11:05:28.758Z,9.92
2022-12-25T11:06:31.963Z,10.10
2022-12-25T11:07:29.454Z,10.01
2022-12-25T11:08:29.825Z,10.17
2022-12-25T11:09:26.613Z,10.44
2022-12-25T11:10:27.900Z,10.49
2022-12-25T11:11:25.601Z,10.61
2022-12-25T11:12:31.172Z,10.61
2022-12-25T11:13:30.306Z,10.69
2022-12-25T11:14:29.187Z,10.55
2022-12-25T11:15:31.921Z,10.76
2022-12-25T11:16:35.419Z,10.73
2022-12-25T11:17:32.595Z,10.46
2022-12-25T11:18:50.608Z,10.45
2022-12-25T11:19:53.044Z,10.47
2022-12-25T11:20:50.534Z,10.43
2022-12-25T11:21:52.071Z,10.53
2022-12-25T11:22:50.291Z,10.77
2022-12-25T11:23:49.682Z,10.82
2022-12-25T11:24:46.411Z,10.71
2022-12-25T11:25:42.996Z,10.70
2022-12-25T11:26:54.314Z,10.79
2022-12-25T11:28:00.693Z,10.51
2022-12-25T11:28:58.376Z,10.93
2022-12-25T11:30:01.256Z,10.85
2022-12-25T11:31:15.186Z,10.31
2022-12-25T11:32:30.024Z,10.76
2022-12-25T11:33:33.053Z,10.93
2022-12-25T11:34:38.510Z,11.04
2022-12-25T11:36:00.325Z,11.24
2022-12-25T11:36:58.924Z,11.14
2022-12-25T11:37:55.605Z,11.34
2022-12-25T11:38:52.525Z,10.69
2022-12-25T11:39:49.203Z,11.44
2022-12-25T11:40:55.336Z,11.29
2022-12-25T11:41:58.201Z,11.24
2022-12-25T11:43:07.619Z,11.40
2022-12-25T11:44:11.646Z,11.47
2022-12-25T11:45:32.044Z,11.60
2022-12-25T11:46:28.699Z,11.43
2022-12-25T11:47:28.097Z,11.27
2022-12-25T11:48:46.438Z,11.38
2022-12-25T11:50:08.133Z,11.16
2022-12-25T11:51:06.446Z,10.95
2022-12-25T11:52:06.604Z,11.26
2022-12-25T11:53:13.740Z,11.01
2022-12-25T11:54:26.909Z,11.08
2022-12-25T11:55:26.100Z,11.13
2022-12-25T11:56:26.110Z,11.12
2022-12-25T11:57:26.019Z,11.08
2022-12-25T11:58:31.655Z,11.19
2022-12-25T11:59:35.176Z,11.36
2022-12-25T12:00:35.290Z,11.02
2022-12-25T12:01:34.593Z,11.21
2022-12-25T12:03:13.617Z,11.50
2022-12-25T12:04:24.306Z,11.52
2022-12-25T12:05:36.312Z,11.43
2022-12-25T12:06:47.897Z,11.40
2022-12-25T12:08:02.448Z,11.59
2022-12-25T12:09:24.528Z,11.59
2022-12-25T12:10:33.057Z,11.64
2022-12-25T12:11:38.972Z,11.65
2022-12-25T12:12:56.104Z,11.79
2022-12-25T12:14:01.881Z,11.55
2022-12-25T12:15:03.843Z,11.67
2022-12-25T12:16:00.560Z,11.62
2022-12-25T12:16:57.319Z,11.69
2022-12-25T12:17:54.328Z,11.70
2022-12-25T12:18:51.086Z,11.67
2022-12-25T12:19:47.940Z,11.98
2022-12-25T12:20:44.666Z,12.09
2022-12-25T12:21:44.201Z,11.48
2022-12-25T12:22:50.204Z,11.75
2022-12-25T12:23:55.665Z,11.73
2022-12-25T12:24:59.978Z,11.75
2022-12-25T12:25:57.408Z,11.43
2022-12-25T12:27:17.180Z,11.54
2022-12-25T12:28:22.832Z,11.86
2022-12-25T12:29:26.010Z,11.91
2022-12-25T12:30:35.411Z,11.42
2022-12-25T12:31:44.981Z,11.54
2022-12-25T12:32:49.594Z,11.32
2022-12-25T12:33:52.205Z,11.28
2022-12-25T12:34:51.728Z,11.46
2022-12-25T12:35:49.049Z,11.49
2022-12-25T12:36:46.121Z,11.37
2022-12-25T12:37:46.310Z,11.69
2022-12-25T12:38:44.851Z,11.76
2022-12-25T12:39:42.260Z,11.69
2022-12-25T12:41:07.363Z,11.41
2022-12-25T12:42:14.491Z,11.31
2022-12-25T12:43:30.676Z,11.35
2022-12-25T12:44:33.587Z,11.01
2022-12-25T12:45:34.727Z,11.06
2022-12-25T12:46:36.313Z,11.44
2022-12-25T12:47:50.541Z,11.42
2022-12-25T12:48:49.695Z,11.32
2022-12-25T12:49:57.369Z,11.44
2022-12-25T12:51:05.958Z,11.41
2022-12-25T12:52:07.358Z,11.54
2022-12-25T12:53:23.776Z,11.30
2022-12-25T12:54:25.915Z,11.30
2022-12-25T12:55:34.641Z,11.28
2022-12-25T12:56:31.205Z,11.36
2022-12-25T12:57:32.790Z,11.19
2022-12-25T12:58:37.899Z,11.24
2022-12-25T12:59:46.850Z,11.38
2022-12-25T13:00:52.411Z,11.31
2022-12-25T13:02:12.687Z,11.44
2022-12-25T13:03:21.663Z,11.51
2022-12-25T13:04:28.720Z,11.44
2022-12-25T13:05:43.070Z,11.47
2022-12-25T13:07:14.196Z,11.50
2022-12-25T13:08:31.826Z,11.50
2022-12-25T13:09:43.790Z,11.49
2022-12-25T13:10:51.978Z,11.69
2022-12-25T13:11:49.382Z,11.34
2022-12-25T13:12:47.074Z,11.57
2022-12-25T13:13:46.101Z,11.73
2022-12-25T13:14:48.065Z,11.91
2022-12-25T13:15:48.045Z,11.80
2022-12-25T13:16:47.504Z,11.44
2022-12-25T13:17:45.594Z,11.53
2022-12-25T13:18:42.361Z,11.51
2022-12-25T13:19:43.513Z,11.33
2022-12-25T13:20:55.301Z,11.60
2022-12-25T13:22:00.986Z,11.66
2022-12-25T13:22:57.615Z,11.34
2022-12-25T13:24:03.071Z,11.29
2022-12-25T13:25:04.551Z,11.54
2022-12-25T13:26:19.284Z,11.43
2022-12-25T13:27:22.976Z,11.37
2022-12-25T13:28:25.792Z,11.25
2022-12-25T13:29:36.197Z,11.13
2022-12-25T13:30:32.922Z,10.97
2022-12-25T13:31:31.274Z,10.99
2022-12-25T13:32:33.292Z,11.03
2022-12-25T13:33:29.979Z,11.03
2022-12-25T13:34:36.194Z,11.22
2022-12-25T13:35:32.859Z,11.12
2022-12-25T13:36:35.372Z,11.07
2022-12-25T13:37:31.898Z,11.37
2022-12-25T13:38:29.430Z,11.01
2022-12-25T13:39:26.910Z,10.84
2022-12-25T13:40:27.273Z,10.93
2022-12-25T13:41:52.903Z,10.75
2022-12-25T13:42:52.253Z,11.06
2022-12-25T13:43:49.523Z,10.90
2022-12-25T13:45:22.956Z,10.93